sensor_id;sensor_type;location;lat;lon;timestamp;pressure;altitude;pressure_sealevel;temperature;humidity
76122;BME280;70471;53.200;6.080;2023-08-06T00:04:20;100649.44;;;21.76;50.19
76122;BME280;70471;53.200;6.080;2023-08-06T00:09:12;100655.28;;;21.75;49.85
76122;BME280;70471;53.200;6.080;2023-08-06T00:14:05;100647.28;;;21.73;49.84
76122;BME280;70471;53.200;6.080;2023-08-06T00:18:56;100653.16;;;21.72;49.88
76122;BME280;70471;53.200;6.080;2023-08-06T00:23:47;100649.88;;;21.70;50.00
76122;BME280;70471;53.200;6.080;2023-08-06T00:28:39;100649.88;;;21.70;50.09
76122;BME280;70471;53.200;6.080;2023-08-06T00:33:32;100650.53;;;21.67;49.71
76122;BME280;70471;53.200;6.080;2023-08-06T00:38:23;100648.91;;;21.66;49.72
76122;BME280;70471;53.200;6.080;2023-08-06T00:43:14;100649.53;;;21.62;50.01
76122;BME280;70471;53.200;6.080;2023-08-06T00:48:06;100653.44;;;21.61;49.79
76122;BME280;70471;53.200;6.080;2023-08-06T00:52:59;100647.72;;;21.58;49.79
76122;BME280;70471;53.200;6.080;2023-08-06T00:57:50;100642.81;;;21.55;50.17
76122;BME280;70471;53.200;6.080;2023-08-06T01:02:43;100656.97;;;21.53;50.34
76122;BME280;70471;53.200;6.080;2023-08-06T01:07:43;100655.34;;;21.52;50.00
76122;BME280;70471;53.200;6.080;2023-08-06T01:12:45;100658.09;;;21.52;50.20
76122;BME280;70471;53.200;6.080;2023-08-06T01:17:39;100658.41;;;21.51;50.26
76122;BME280;70471;53.200;6.080;2023-08-06T01:22:33;100658.41;;;21.51;50.38
76122;BME280;70471;53.200;6.080;2023-08-06T01:27:28;100652.69;;;21.47;50.28
76122;BME280;70471;53.200;6.080;2023-08-06T01:32:22;100653.50;;;21.48;50.33
76122;BME280;70471;53.200;6.080;2023-08-06T01:37:16;100654.13;;;21.44;50.16
76122;BME280;70471;53.200;6.080;2023-08-06T01:42:09;100646.13;;;21.43;50.52
76122;BME280;70471;53.200;6.080;2023-08-06T01:47:00;100648.41;;;21.41;50.10
76122;BME280;70471;53.200;6.080;2023-08-06T01:51:52;100641.22;;;21.40;50.03
76122;BME280;70471;53.200;6.080;2023-08-06T01:56:43;100650.69;;;21.39;50.38
76122;BME280;70471;53.200;6.080;2023-08-06T02:01:36;100634.69;;;21.36;50.33
76122;BME280;70471;53.200;6.080;2023-08-06T02:06:27;100628.63;;;21.34;50.32
76122;BME280;70471;53.200;6.080;2023-08-06T02:11:19;100629.78;;;21.33;50.41
76122;BME280;70471;53.200;6.080;2023-08-06T02:16:10;100624.22;;;21.33;50.28
76122;BME280;70471;53.200;6.080;2023-08-06T02:21:03;100623.75;;;21.31;50.25
76122;BME280;70471;53.200;6.080;2023-08-06T02:25:59;100618.31;;;21.25;50.72
76122;BME280;70471;53.200;6.080;2023-08-06T02:30:50;100606.59;;;21.28;50.54
76122;BME280;70471;53.200;6.080;2023-08-06T02:35:41;100614.91;;;21.28;50.62
76122;BME280;70471;53.200;6.080;2023-08-06T02:40:34;100617.19;;;21.26;50.76
76122;BME280;70471;53.200;6.080;2023-08-06T02:45:26;100606.41;;;21.25;50.68
76122;BME280;70471;53.200;6.080;2023-08-06T02:50:17;100607.53;;;21.24;50.42
76122;BME280;70471;53.200;6.080;2023-08-06T02:55:08;100600.38;;;21.23;50.53
76122;BME280;70471;53.200;6.080;2023-08-06T03:00:01;100602.94;;;21.19;50.61
76122;BME280;70471;53.200;6.080;2023-08-06T03:04:53;100590.25;;;21.18;50.69
76122;BME280;70471;53.200;6.080;2023-08-06T03:09:44;100580.59;;;21.16;50.61
76122;BME280;70471;53.200;6.080;2023-08-06T03:14:36;100582.56;;;21.15;50.97
76122;BME280;70471;53.200;6.080;2023-08-06T03:19:29;100592.00;;;21.14;50.58
76122;BME280;70471;53.200;6.080;2023-08-06T03:24:20;100568.53;;;21.12;50.85
76122;BME280;70471;53.200;6.080;2023-08-06T03:29:11;100567.19;;;21.09;50.69
76122;BME280;70471;53.200;6.080;2023-08-06T03:34:03;100567.19;;;21.09;50.58
76122;BME280;70471;53.200;6.080;2023-08-06T03:38:55;100564.72;;;21.07;51.20
76122;BME280;70471;53.200;6.080;2023-08-06T03:43:47;100579.41;;;21.08;51.11
76122;BME280;70471;53.200;6.080;2023-08-06T03:48:38;100571.41;;;21.06;50.59
76122;BME280;70471;53.200;6.080;2023-08-06T03:53:30;100580.00;;;21.05;50.82
76122;BME280;70471;53.200;6.080;2023-08-06T03:58:23;100578.38;;;21.04;50.62
76122;BME280;70471;53.200;6.080;2023-08-06T04:03:14;100575.91;;;21.02;51.19
76122;BME280;70471;53.200;6.080;2023-08-06T04:08:06;100575.06;;;21.02;50.73
76122;BME280;70471;53.200;6.080;2023-08-06T04:12:57;100580.44;;;20.98;51.25
76122;BME280;70471;53.200;6.080;2023-08-06T04:17:50;100583.84;;;20.95;51.05
76122;BME280;70471;53.200;6.080;2023-08-06T04:22:41;100591.34;;;20.95;51.09
76122;BME280;70471;53.200;6.080;2023-08-06T04:27:32;100591.16;;;20.91;50.67
76122;BME280;70471;53.200;6.080;2023-08-06T04:32:24;100589.50;;;20.90;50.95
76122;BME280;70471;53.200;6.080;2023-08-06T04:37:17;100585.09;;;20.89;51.17
76122;BME280;70471;53.200;6.080;2023-08-06T04:42:09;100579.84;;;20.87;51.03
76122;BME280;70471;53.200;6.080;2023-08-06T04:47:00;100584.91;;;20.85;51.25
76122;BME280;70471;53.200;6.080;2023-08-06T04:51:51;100580.47;;;20.84;51.11
76122;BME280;70471;53.200;6.080;2023-08-06T04:56:44;100591.56;;;20.84;51.51
76122;BME280;70471;53.200;6.080;2023-08-06T05:01:36;100589.94;;;20.83;51.48
76122;BME280;70471;53.200;6.080;2023-08-06T05:06:27;100597.72;;;20.81;51.31
76122;BME280;70471;53.200;6.080;2023-08-06T05:11:18;100599.19;;;20.79;51.04
76122;BME280;70471;53.200;6.080;2023-08-06T05:16:11;100598.34;;;20.78;50.94
76122;BME280;70471;53.200;6.080;2023-08-06T05:21:03;100593.97;;;20.77;51.19
76122;BME280;70471;53.200;6.080;2023-08-06T05:25:54;100597.84;;;20.76;51.18
76122;BME280;70471;53.200;6.080;2023-08-06T05:30:45;100600.63;;;20.76;51.63
76122;BME280;70471;53.200;6.080;2023-08-06T05:35:40;100600.13;;;20.74;51.40
76122;BME280;70471;53.200;6.080;2023-08-06T05:40:33;100613.97;;;20.74;51.50
76122;BME280;70471;53.200;6.080;2023-08-06T05:45:24;100619.50;;;20.74;51.11
76122;BME280;70471;53.200;6.080;2023-08-06T05:50:16;100613.97;;;20.74;51.34
76122;BME280;70471;53.200;6.080;2023-08-06T05:55:09;100614.78;;;20.74;51.63
76122;BME280;70471;53.200;6.080;2023-08-06T06:00:00;100612.31;;;20.73;51.30
76122;BME280;70471;53.200;6.080;2023-08-06T06:04:52;100616.72;;;20.74;51.30
76122;BME280;70471;53.200;6.080;2023-08-06T06:09:43;100616.22;;;20.72;51.59
76122;BME280;70471;53.200;6.080;2023-08-06T06:14:36;100629.75;;;20.73;51.10
76122;BME280;70471;53.200;6.080;2023-08-06T06:19:27;100629.75;;;20.73;51.58
76122;BME280;70471;53.200;6.080;2023-08-06T06:24:19;100628.94;;;20.73;51.32
76122;BME280;70471;53.200;6.080;2023-08-06T06:29:10;100628.94;;;20.73;51.37
76122;BME280;70471;53.200;6.080;2023-08-06T06:34:03;100628.94;;;20.73;51.72
76122;BME280;70471;53.200;6.080;2023-08-06T06:38:54;100628.94;;;20.73;51.84
76122;BME280;70471;53.200;6.080;2023-08-06T06:43:45;100632.53;;;20.73;51.82
76122;BME280;70471;53.200;6.080;2023-08-06T06:48:37;100634.47;;;20.73;51.78
76122;BME280;70471;53.200;6.080;2023-08-06T06:53:30;100628.94;;;20.73;51.38
76122;BME280;70471;53.200;6.080;2023-08-06T06:58:21;100628.94;;;20.73;51.46
76122;BME280;70471;53.200;6.080;2023-08-06T07:03:13;100633.34;;;20.74;52.13
76122;BME280;70471;53.200;6.080;2023-08-06T07:08:05;100643.28;;;20.75;51.47
76122;BME280;70471;53.200;6.080;2023-08-06T07:12:57;100632.53;;;20.73;51.93
76122;BME280;70471;53.200;6.080;2023-08-06T07:17:49;100639.38;;;20.76;51.57
76122;BME280;70471;53.200;6.080;2023-08-06T07:22:40;100641.66;;;20.74;51.58
76122;BME280;70471;53.200;6.080;2023-08-06T07:27:31;100655.00;;;20.72;52.28
76122;BME280;70471;53.200;6.080;2023-08-06T07:32:24;100651.47;;;20.80;52.32
76122;BME280;70471;53.200;6.080;2023-08-06T07:37:16;100655.47;;;20.88;52.14
76122;BME280;70471;53.200;6.080;2023-08-06T07:42:08;100653.38;;;20.94;51.49
76122;BME280;70471;53.200;6.080;2023-08-06T07:46:59;100643.66;;;20.96;51.65
76122;BME280;70471;53.200;6.080;2023-08-06T07:51:52;100644.13;;;20.98;51.55
76122;BME280;70471;53.200;6.080;2023-08-06T07:56:43;100647.09;;;21.02;51.29
76122;BME280;70471;53.200;6.080;2023-08-06T08:01:34;100644.84;;;21.04;51.12
76122;BME280;70471;53.200;6.080;2023-08-06T08:06:26;100650.88;;;21.06;51.01
76122;BME280;70471;53.200;6.080;2023-08-06T08:11:19;100644.84;;;21.04;51.19
76122;BME280;70471;53.200;6.080;2023-08-06T08:16:11;100643.41;;;21.06;51.67
76122;BME280;70471;53.200;6.080;2023-08-06T08:21:02;100645.34;;;21.06;51.65
76122;BME280;70471;53.200;6.080;2023-08-06T08:25:54;100646.09;;;21.12;51.15
76122;BME280;70471;53.200;6.080;2023-08-06T08:30:47;100649.03;;;21.15;51.11
76122;BME280;70471;53.200;6.080;2023-08-06T08:35:38;100648.09;;;21.20;51.27
76122;BME280;70471;53.200;6.080;2023-08-06T08:40:32;100651.38;;;21.22;50.98
76122;BME280;70471;53.200;6.080;2023-08-06T08:45:26;100647.97;;;21.25;51.50
76122;BME280;70471;53.200;6.080;2023-08-06T08:50:21;100642.94;;;21.27;50.91
76122;BME280;70471;53.200;6.080;2023-08-06T08:55:15;100648.16;;;21.28;51.42
76122;BME280;70471;53.200;6.080;2023-08-06T09:00:08;100649.19;;;21.33;51.08
76122;BME280;70471;53.200;6.080;2023-08-06T09:05:00;100649.66;;;21.35;50.95
76122;BME280;70471;53.200;6.080;2023-08-06T09:09:54;100652.94;;;21.37;50.88
76122;BME280;70471;53.200;6.080;2023-08-06T09:14:47;100655.09;;;21.40;51.15
76122;BME280;70471;53.200;6.080;2023-08-06T09:19:41;100660.13;;;21.38;51.24
76122;BME280;70471;53.200;6.080;2023-08-06T09:24:38;100665.03;;;21.41;51.44
76122;BME280;70471;53.200;6.080;2023-08-06T09:29:31;100669.97;;;21.44;51.26
76122;BME280;70471;53.200;6.080;2023-08-06T09:34:24;100669.31;;;21.47;51.07
76122;BME280;70471;53.200;6.080;2023-08-06T09:39:16;100678.13;;;21.49;51.18
76122;BME280;70471;53.200;6.080;2023-08-06T09:44:15;100675.88;;;21.51;51.30
76122;BME280;70471;53.200;6.080;2023-08-06T09:49:09;100677.50;;;21.52;51.41
76122;BME280;70471;53.200;6.080;2023-08-06T09:54:01;100680.78;;;21.54;51.20
76122;BME280;70471;53.200;6.080;2023-08-06T09:58:52;100676.25;;;21.58;51.31
76122;BME280;70471;53.200;6.080;2023-08-06T10:03:46;100679.03;;;21.58;51.57
76122;BME280;70471;53.200;6.080;2023-08-06T10:08:40;100685.91;;;21.61;51.40
76122;BME280;70471;53.200;6.080;2023-08-06T10:13:33;100683.94;;;21.61;51.39
76122;BME280;70471;53.200;6.080;2023-08-06T10:18:25;100676.63;;;21.66;51.42
76122;BME280;70471;53.200;6.080;2023-08-06T10:23:18;100683.47;;;21.68;51.21
76122;BME280;70471;53.200;6.080;2023-08-06T10:28:12;100686.44;;;21.72;51.21
76122;BME280;70471;53.200;6.080;2023-08-06T10:33:05;100681.41;;;21.74;51.19
76122;BME280;70471;53.200;6.080;2023-08-06T10:38:04;100686.31;;;21.77;51.25
76122;BME280;70471;53.200;6.080;2023-08-06T10:42:58;100688.50;;;21.80;51.39
76122;BME280;70471;53.200;6.080;2023-08-06T10:47:51;100682.94;;;21.80;51.23
76122;BME280;70471;53.200;6.080;2023-08-06T10:52:43;100682.63;;;21.81;51.68
76122;BME280;70471;53.200;6.080;2023-08-06T10:57:35;100691.13;;;21.85;51.47
76122;BME280;70471;53.200;6.080;2023-08-06T11:02:26;100691.13;;;21.85;51.64
76122;BME280;70471;53.200;6.080;2023-08-06T11:07:19;100678.25;;;21.89;51.17
76122;BME280;70471;53.200;6.080;2023-08-06T11:12:18;100689.03;;;21.91;51.37
76122;BME280;70471;53.200;6.080;2023-08-06T11:17:09;100691.16;;;21.94;50.99
76122;BME280;70471;53.200;6.080;2023-08-06T11:22:01;100685.81;;;21.97;51.16
76122;BME280;70471;53.200;6.080;2023-08-06T11:26:54;100682.72;;;21.99;51.19
76122;BME280;70471;53.200;6.080;2023-08-06T11:31:45;100690.72;;;22.01;50.92
76122;BME280;70471;53.200;6.080;2023-08-06T11:36:41;100691.38;;;21.97;51.27
76122;BME280;70471;53.200;6.080;2023-08-06T11:41:32;100692.13;;;21.89;51.79
76122;BME280;70471;53.200;6.080;2023-08-06T11:46:25;100688.34;;;21.85;51.93
76122;BME280;70471;53.200;6.080;2023-08-06T11:51:17;100692.56;;;21.83;51.92
76122;BME280;70471;53.200;6.080;2023-08-06T11:56:08;100690.13;;;21.81;52.46
76122;BME280;70471;53.200;6.080;2023-08-06T12:01:00;100693.19;;;21.79;52.11
76122;BME280;70471;53.200;6.080;2023-08-06T12:05:53;100692.41;;;21.79;52.20
76122;BME280;70471;53.200;6.080;2023-08-06T12:10:45;100696.28;;;21.78;52.51
76122;BME280;70471;53.200;6.080;2023-08-06T12:15:37;100699.06;;;21.78;52.37
76122;BME280;70471;53.200;6.080;2023-08-06T12:20:29;100696.28;;;21.78;52.24
76122;BME280;70471;53.200;6.080;2023-08-06T12:25:22;100707.06;;;21.79;52.63
76122;BME280;70471;53.200;6.080;2023-08-06T12:30:14;100703.50;;;21.79;52.70
76122;BME280;70471;53.200;6.080;2023-08-06T12:35:07;100702.69;;;21.78;52.74
76122;BME280;70471;53.200;6.080;2023-08-06T12:39:58;100692.88;;;21.81;52.74
76122;BME280;70471;53.200;6.080;2023-08-06T12:44:51;100707.59;;;21.81;52.80
76122;BME280;70471;53.200;6.080;2023-08-06T12:49:43;100713.94;;;21.82;52.69
76122;BME280;70471;53.200;6.080;2023-08-06T12:54:34;100716.72;;;21.82;52.47
76122;BME280;70471;53.200;6.080;2023-08-06T12:59:27;100713.94;;;21.82;52.70
76122;BME280;70471;53.200;6.080;2023-08-06T13:04:20;100707.91;;;21.80;52.36
76122;BME280;70471;53.200;6.080;2023-08-06T13:09:12;100721.00;;;21.88;52.74
76122;BME280;70471;53.200;6.080;2023-08-06T13:14:04;100714.81;;;21.91;52.21
76122;BME280;70471;53.200;6.080;2023-08-06T13:18:56;100718.09;;;21.93;52.28
76122;BME280;70471;53.200;6.080;2023-08-06T13:23:49;100719.75;;;21.94;52.45
76122;BME280;70471;53.200;6.080;2023-08-06T13:28:40;100718.78;;;21.99;52.03
76122;BME280;70471;53.200;6.080;2023-08-06T13:33:32;100709.50;;;22.04;52.59
76122;BME280;70471;53.200;6.080;2023-08-06T13:38:23;100728.78;;;22.09;52.25
76122;BME280;70471;53.200;6.080;2023-08-06T13:43:16;100734.19;;;22.14;52.34
76122;BME280;70471;53.200;6.080;2023-08-06T13:48:09;100728.34;;;22.15;52.37
76122;BME280;70471;53.200;6.080;2023-08-06T13:53:00;100735.31;;;22.13;52.34
76122;BME280;70471;53.200;6.080;2023-08-06T13:57:52;100734.69;;;22.16;51.91
76122;BME280;70471;53.200;6.080;2023-08-06T14:02:45;100748.56;;;22.16;51.98
76122;BME280;70471;53.200;6.080;2023-08-06T14:07:36;100747.44;;;22.17;51.93
76122;BME280;70471;53.200;6.080;2023-08-06T14:12:28;100763.28;;;22.16;52.41
76122;BME280;70471;53.200;6.080;2023-08-06T14:17:19;100763.44;;;22.20;52.00
76122;BME280;70471;53.200;6.080;2023-08-06T14:22:12;100773.91;;;22.23;51.99
76122;BME280;70471;53.200;6.080;2023-08-06T14:27:04;100770.03;;;22.24;51.92
76122;BME280;70471;53.200;6.080;2023-08-06T14:31:56;100765.44;;;22.28;52.05
76122;BME280;70471;53.200;6.080;2023-08-06T14:36:47;100776.72;;;22.32;51.97
76122;BME280;70471;53.200;6.080;2023-08-06T14:41:40;100772.00;;;22.32;52.01
76122;BME280;70471;53.200;6.080;2023-08-06T14:46:32;100770.75;;;22.39;51.70
76122;BME280;70471;53.200;6.080;2023-08-06T14:51:23;100779.56;;;22.41;51.81
76122;BME280;70471;53.200;6.080;2023-08-06T14:56:14;100778.81;;;22.49;51.76
76122;BME280;70471;53.200;6.080;2023-08-06T15:01:07;100785.38;;;22.53;51.43
76122;BME280;70471;53.200;6.080;2023-08-06T15:05:59;100788.16;;;22.53;51.43
76122;BME280;70471;53.200;6.080;2023-08-06T15:10:51;100796.97;;;22.55;51.72
76122;BME280;70471;53.200;6.080;2023-08-06T15:15:42;100805.66;;;22.62;51.28
76122;BME280;70471;53.200;6.080;2023-08-06T15:20:36;100812.53;;;22.65;51.30
76122;BME280;70471;53.200;6.080;2023-08-06T15:25:27;100813.84;;;22.67;51.51
76122;BME280;70471;53.200;6.080;2023-08-06T15:30:19;100827.91;;;22.71;51.08
76122;BME280;70471;53.200;6.080;2023-08-06T15:35:11;100822.03;;;22.73;51.28
76122;BME280;70471;53.200;6.080;2023-08-06T15:40:04;100838.69;;;22.73;51.34
76122;BME280;70471;53.200;6.080;2023-08-06T15:44:56;100844.56;;;22.71;51.13
76122;BME280;70471;53.200;6.080;2023-08-06T15:49:47;100855.69;;;22.71;51.45
76122;BME280;70471;53.200;6.080;2023-08-06T15:54:39;100862.38;;;22.70;51.67
76122;BME280;70471;53.200;6.080;2023-08-06T15:59:32;100858.78;;;22.69;51.69
76122;BME280;70471;53.200;6.080;2023-08-06T16:04:25;100863.53;;;22.69;51.61
76122;BME280;70471;53.200;6.080;2023-08-06T16:09:17;100869.88;;;22.69;51.64
76122;BME280;70471;53.200;6.080;2023-08-06T16:14:08;100860.44;;;22.70;51.77
76122;BME280;70471;53.200;6.080;2023-08-06T16:19:02;100868.63;;;22.76;51.54
76122;BME280;70471;53.200;6.080;2023-08-06T16:23:53;100871.25;;;22.81;51.67
76122;BME280;70471;53.200;6.080;2023-08-06T16:28:45;100869.00;;;22.83;51.52
76122;BME280;70471;53.200;6.080;2023-08-06T16:33:37;100876.00;;;22.89;51.18
76122;BME280;70471;53.200;6.080;2023-08-06T16:38:29;100884.34;;;22.89;51.49
76122;BME280;70471;53.200;6.080;2023-08-06T16:43:22;100882.22;;;22.86;51.59
76122;BME280;70471;53.200;6.080;2023-08-06T16:48:13;100889.91;;;22.89;51.41
76122;BME280;70471;53.200;6.080;2023-08-06T16:53:05;100896.09;;;22.86;51.73
76122;BME280;70471;53.200;6.080;2023-08-06T16:57:57;100903.63;;;22.85;51.58
76122;BME280;70471;53.200;6.080;2023-08-06T17:02:49;100913.44;;;22.83;51.73
76122;BME280;70471;53.200;6.080;2023-08-06T17:07:40;100919.63;;;22.80;51.58
76122;BME280;70471;53.200;6.080;2023-08-06T17:12:34;100917.97;;;22.79;51.57
76122;BME280;70471;53.200;6.080;2023-08-06T17:17:26;100919.44;;;22.76;51.76
76122;BME280;70471;53.200;6.080;2023-08-06T17:22:18;100925.28;;;22.75;51.88
76122;BME280;70471;53.200;6.080;2023-08-06T17:27:09;100919.25;;;22.73;51.84
76122;BME280;70471;53.200;6.080;2023-08-06T17:32:01;100923.16;;;22.71;52.07
76122;BME280;70471;53.200;6.080;2023-08-06T17:36:54;100927.09;;;22.70;51.94
76122;BME280;70471;53.200;6.080;2023-08-06T17:41:46;100929.34;;;22.68;51.87
76122;BME280;70471;53.200;6.080;2023-08-06T17:46:38;100922.16;;;22.67;51.91
76122;BME280;70471;53.200;6.080;2023-08-06T17:51:29;100936.06;;;22.67;52.00
76122;BME280;70471;53.200;6.080;2023-08-06T17:56:22;100935.53;;;22.65;52.18
76122;BME280;70471;53.200;6.080;2023-08-06T18:01:13;100938.66;;;22.64;52.31
76122;BME280;70471;53.200;6.080;2023-08-06T18:06:05;100931.44;;;22.63;52.08
76122;BME280;70471;53.200;6.080;2023-08-06T18:10:57;100923.44;;;22.61;52.09
76122;BME280;70471;53.200;6.080;2023-08-06T18:15:50;100927.34;;;22.60;52.17
76122;BME280;70471;53.200;6.080;2023-08-06T18:20:41;100928.19;;;22.61;52.27
76122;BME280;70471;53.200;6.080;2023-08-06T18:25:33;100942.38;;;22.59;52.18
76122;BME280;70471;53.200;6.080;2023-08-06T18:30:24;100944.63;;;22.57;52.23
76122;BME280;70471;53.200;6.080;2023-08-06T18:35:17;100949.38;;;22.57;52.21
76122;BME280;70471;53.200;6.080;2023-08-06T18:40:10;100942.72;;;22.66;52.54
76122;BME280;70471;53.200;6.080;2023-08-06T18:45:01;100945.38;;;22.71;52.53
76122;BME280;70471;53.200;6.080;2023-08-06T18:49:53;100943.94;;;22.74;52.47
76122;BME280;70471;53.200;6.080;2023-08-06T18:54:46;100949.66;;;22.78;52.37
76122;BME280;70471;53.200;6.080;2023-08-06T18:59:37;100952.13;;;22.79;52.49
76122;BME280;70471;53.200;6.080;2023-08-06T19:04:29;100961.28;;;22.80;52.44
76122;BME280;70471;53.200;6.080;2023-08-06T19:09:20;100949.03;;;22.81;52.20
76122;BME280;70471;53.200;6.080;2023-08-06T19:14:13;100952.31;;;22.83;52.22
76122;BME280;70471;53.200;6.080;2023-08-06T19:19:05;100948.41;;;22.84;51.92
76122;BME280;70471;53.200;6.080;2023-08-06T19:23:57;100957.22;;;22.86;52.23
76122;BME280;70471;53.200;6.080;2023-08-06T19:28:50;100958.56;;;22.88;52.15
76122;BME280;70471;53.200;6.080;2023-08-06T19:33:42;100967.69;;;22.89;52.11
76122;BME280;70471;53.200;6.080;2023-08-06T19:38:34;100963.78;;;22.90;52.28
76122;BME280;70471;53.200;6.080;2023-08-06T19:43:25;100973.78;;;22.91;52.28
76122;BME280;70471;53.200;6.080;2023-08-06T19:48:18;100972.63;;;22.92;52.14
76122;BME280;70471;53.200;6.080;2023-08-06T19:53:11;100966.75;;;22.94;51.70
76122;BME280;70471;53.200;6.080;2023-08-06T19:58:03;100972.00;;;22.95;52.07
76122;BME280;70471;53.200;6.080;2023-08-06T20:02:54;100970.53;;;22.98;51.84
76122;BME280;70471;53.200;6.080;2023-08-06T20:07:45;100973.00;;;22.99;51.79
76122;BME280;70471;53.200;6.080;2023-08-06T20:12:38;100973.81;;;23.00;51.78
76122;BME280;70471;53.200;6.080;2023-08-06T20:17:30;100977.91;;;23.02;51.84
76122;BME280;70471;53.200;6.080;2023-08-06T20:22:21;100973.19;;;23.03;51.71
76122;BME280;70471;53.200;6.080;2023-08-06T20:27:13;100970.22;;;22.99;51.56
76122;BME280;70471;53.200;6.080;2023-08-06T20:32:06;100982.13;;;22.91;50.53
76122;BME280;70471;53.200;6.080;2023-08-06T20:36:57;100983.38;;;22.85;50.87
76122;BME280;70471;53.200;6.080;2023-08-06T20:41:49;100983.31;;;22.76;50.88
76122;BME280;70471;53.200;6.080;2023-08-06T20:46:40;100994.25;;;22.73;50.82
76122;BME280;70471;53.200;6.080;2023-08-06T20:51:33;100992.09;;;22.69;50.95
76122;BME280;70471;53.200;6.080;2023-08-06T20:56:25;100991.91;;;22.66;51.11
76122;BME280;70471;53.200;6.080;2023-08-06T21:01:16;100989.78;;;22.63;51.10
76122;BME280;70471;53.200;6.080;2023-08-06T21:06:07;100993.19;;;22.60;50.90
76122;BME280;70471;53.200;6.080;2023-08-06T21:11:01;100994.13;;;22.55;50.78
76122;BME280;70471;53.200;6.080;2023-08-06T21:15:57;100986.41;;;22.52;50.95
76122;BME280;70471;53.200;6.080;2023-08-06T21:20:53;100998.16;;;22.49;50.87
76122;BME280;70471;53.200;6.080;2023-08-06T21:25:48;100994.00;;;22.46;51.00
76122;BME280;70471;53.200;6.080;2023-08-06T21:30:41;100998.38;;;22.39;50.38
76122;BME280;70471;53.200;6.080;2023-08-06T21:35:32;101001.25;;;22.33;50.33
76122;BME280;70471;53.200;6.080;2023-08-06T21:40:23;101002.50;;;22.27;50.25
76122;BME280;70471;53.200;6.080;2023-08-06T21:45:15;101006.88;;;22.20;50.22
76122;BME280;70471;53.200;6.080;2023-08-06T21:50:08;101016.75;;;22.12;49.99
76122;BME280;70471;53.200;6.080;2023-08-06T21:55:00;101016.34;;;22.05;50.22
76122;BME280;70471;53.200;6.080;2023-08-06T21:59:51;101022.00;;;21.99;49.95
76122;BME280;70471;53.200;6.080;2023-08-06T22:04:43;101014.59;;;21.95;49.95
76122;BME280;70471;53.200;6.080;2023-08-06T22:09:36;101010.59;;;21.87;49.89
76122;BME280;70471;53.200;6.080;2023-08-06T22:14:27;101010.88;;;21.72;49.54
76122;BME280;70471;53.200;6.080;2023-08-06T22:19:18;101018.00;;;21.64;50.19
76122;BME280;70471;53.200;6.080;2023-08-06T22:24:10;101022.19;;;21.61;50.04
76122;BME280;70471;53.200;6.080;2023-08-06T22:29:03;101021.56;;;21.51;50.07
76122;BME280;70471;53.200;6.080;2023-08-06T22:33:54;101016.94;;;21.46;50.49
76122;BME280;70471;53.200;6.080;2023-08-06T22:38:45;101007.94;;;21.40;50.53
76122;BME280;70471;53.200;6.080;2023-08-06T22:43:37;101012.94;;;21.38;50.65
76122;BME280;70471;53.200;6.080;2023-08-06T22:48:30;101009.34;;;21.38;50.70
76122;BME280;70471;53.200;6.080;2023-08-06T22:53:21;101005.88;;;21.32;50.37
76122;BME280;70471;53.200;6.080;2023-08-06T22:58:13;101006.19;;;21.31;51.03
76122;BME280;70471;53.200;6.080;2023-08-06T23:03:04;101007.31;;;21.30;50.96
76122;BME280;70471;53.200;6.080;2023-08-06T23:07:57;101007.59;;;21.28;50.90
76122;BME280;70471;53.200;6.080;2023-08-06T23:12:48;101014.56;;;21.25;50.66
76122;BME280;70471;53.200;6.080;2023-08-06T23:17:40;101013.75;;;21.25;51.59
76122;BME280;70471;53.200;6.080;2023-08-06T23:22:31;101021.25;;;21.24;51.26
76122;BME280;70471;53.200;6.080;2023-08-06T23:27:24;101017.94;;;21.22;51.69
76122;BME280;70471;53.200;6.080;2023-08-06T23:32:15;101021.88;;;21.21;51.26
76122;BME280;70471;53.200;6.080;2023-08-06T23:37:07;101015.28;;;21.17;51.30
76122;BME280;70471;53.200;6.080;2023-08-06T23:41:58;101010.94;;;21.11;51.02
76122;BME280;70471;53.200;6.080;2023-08-06T23:46:51;101013.78;;;21.06;51.14
76122;BME280;70471;53.200;6.080;2023-08-06T23:51:43;101019.72;;;20.99;50.93
76122;BME280;70471;53.200;6.080;2023-08-06T23:56:34;101018.16;;;20.93;51.24
